sensor_id;sensor_type;location;lat;lon;timestamp;P1;durP1;ratioP1;P2;durP2;ratioP2
54919;SDS011;63804;53.120;8.764;2023-03-05T00:01:18;11.38;;;2.33;;
54919;SDS011;63804;53.120;8.764;2023-03-05T00:03:57;11.75;;;2.33;;
54919;SDS011;63804;53.120;8.764;2023-03-05T00:06:24;9.88;;;2.40;;
54919;SDS011;63804;53.120;8.764;2023-03-05T00:08:51;10.43;;;2.10;;
54919;SDS011;63804;53.120;8.764;2023-03-05T00:11:17;11.85;;;2.47;;
54919;SDS011;63804;53.120;8.764;2023-03-05T00:13:43;13.60;;;2.75;;
54919;SDS011;63804;53.120;8.764;2023-03-05T00:16:10;13.13;;;2.72;;
54919;SDS011;63804;53.120;8.764;2023-03-05T00:18:37;12.20;;;2.42;;
54919;SDS011;63804;53.120;8.764;2023-03-05T00:21:03;15.60;;;3.00;;
54919;SDS011;63804;53.120;8.764;2023-03-05T00:23:30;9.95;;;3.17;;
54919;SDS011;63804;53.120;8.764;2023-03-05T00:25:55;8.98;;;2.50;;
54919;SDS011;63804;53.120;8.764;2023-03-05T00:28:24;13.93;;;3.08;;
54919;SDS011;63804;53.120;8.764;2023-03-05T00:30:50;15.18;;;4.05;;
54919;SDS011;63804;53.120;8.764;2023-03-05T00:33:15;15.93;;;4.10;;
54919;SDS011;63804;53.120;8.764;2023-03-05T00:35:41;14.75;;;3.65;;
54919;SDS011;63804;53.120;8.764;2023-03-05T00:38:08;15.52;;;4.13;;
54919;SDS011;63804;53.120;8.764;2023-03-05T00:40:41;16.53;;;4.43;;
54919;SDS011;63804;53.120;8.764;2023-03-05T00:43:07;15.68;;;5.15;;
54919;SDS011;63804;53.120;8.764;2023-03-05T00:45:33;14.50;;;4.65;;
54919;SDS011;63804;53.120;8.764;2023-03-05T00:47:59;14.60;;;4.28;;
54919;SDS011;63804;53.120;8.764;2023-03-05T00:50:25;11.65;;;4.25;;
54919;SDS011;63804;53.120;8.764;2023-03-05T00:52:51;14.93;;;4.95;;
54919;SDS011;63804;53.120;8.764;2023-03-05T00:55:17;14.63;;;4.25;;
54919;SDS011;63804;53.120;8.764;2023-03-05T00:57:42;14.82;;;4.50;;
54919;SDS011;63804;53.120;8.764;2023-03-05T01:00:08;13.18;;;3.83;;
54919;SDS011;63804;53.120;8.764;2023-03-05T01:02:34;14.95;;;4.10;;
54919;SDS011;63804;53.120;8.764;2023-03-05T01:05:00;11.93;;;4.30;;
54919;SDS011;63804;53.120;8.764;2023-03-05T01:07:25;16.40;;;5.38;;
54919;SDS011;63804;53.120;8.764;2023-03-05T01:09:51;14.43;;;4.10;;
54919;SDS011;63804;53.120;8.764;2023-03-05T01:12:16;9.40;;;2.50;;
54919;SDS011;63804;53.120;8.764;2023-03-05T01:14:41;12.95;;;2.50;;
54919;SDS011;63804;53.120;8.764;2023-03-05T01:17:07;13.45;;;2.28;;
54919;SDS011;63804;53.120;8.764;2023-03-05T01:19:32;11.25;;;2.97;;
54919;SDS011;63804;53.120;8.764;2023-03-05T01:21:58;12.75;;;3.58;;
54919;SDS011;63804;53.120;8.764;2023-03-05T01:24:23;13.82;;;4.22;;
54919;SDS011;63804;53.120;8.764;2023-03-05T01:26:49;13.98;;;4.20;;
54919;SDS011;63804;53.120;8.764;2023-03-05T01:29:15;11.38;;;4.00;;
54919;SDS011;63804;53.120;8.764;2023-03-05T01:31:40;10.88;;;2.58;;
54919;SDS011;63804;53.120;8.764;2023-03-05T01:34:06;10.70;;;3.28;;
54919;SDS011;63804;53.120;8.764;2023-03-05T01:36:31;10.77;;;2.25;;
54919;SDS011;63804;53.120;8.764;2023-03-05T01:38:57;10.15;;;2.53;;
54919;SDS011;63804;53.120;8.764;2023-03-05T01:41:22;11.13;;;3.50;;
54919;SDS011;63804;53.120;8.764;2023-03-05T01:43:48;10.85;;;2.75;;
54919;SDS011;63804;53.120;8.764;2023-03-05T01:49:16;12.13;;;3.08;;
54919;SDS011;63804;53.120;8.764;2023-03-05T01:54:13;14.98;;;3.65;;
54919;SDS011;63804;53.120;8.764;2023-03-05T01:56:45;10.20;;;3.22;;
54919;SDS011;63804;53.120;8.764;2023-03-05T01:59:13;10.43;;;3.20;;
54919;SDS011;63804;53.120;8.764;2023-03-05T02:01:42;7.85;;;2.10;;
54919;SDS011;63804;53.120;8.764;2023-03-05T02:04:10;11.40;;;2.95;;
54919;SDS011;63804;53.120;8.764;2023-03-05T02:06:40;10.80;;;3.38;;
54919;SDS011;63804;53.120;8.764;2023-03-05T02:09:07;11.10;;;3.03;;
54919;SDS011;63804;53.120;8.764;2023-03-05T02:11:32;9.35;;;2.90;;
54919;SDS011;63804;53.120;8.764;2023-03-05T02:13:58;10.88;;;2.42;;
54919;SDS011;63804;53.120;8.764;2023-03-05T02:16:25;16.30;;;3.25;;
54919;SDS011;63804;53.120;8.764;2023-03-05T02:18:50;9.15;;;2.40;;
54919;SDS011;63804;53.120;8.764;2023-03-05T02:21:25;14.95;;;2.72;;
54919;SDS011;63804;53.120;8.764;2023-03-05T02:23:52;9.93;;;2.83;;
54919;SDS011;63804;53.120;8.764;2023-03-05T02:26:18;7.85;;;2.50;;
54919;SDS011;63804;53.120;8.764;2023-03-05T02:28:44;7.72;;;2.85;;
54919;SDS011;63804;53.120;8.764;2023-03-05T02:31:17;10.15;;;3.25;;
54919;SDS011;63804;53.120;8.764;2023-03-05T02:33:45;9.27;;;3.50;;
54919;SDS011;63804;53.120;8.764;2023-03-05T02:36:10;13.25;;;3.03;;
54919;SDS011;63804;53.120;8.764;2023-03-05T02:38:37;8.68;;;2.97;;
54919;SDS011;63804;53.120;8.764;2023-03-05T02:41:03;12.15;;;2.63;;
54919;SDS011;63804;53.120;8.764;2023-03-05T02:43:29;9.77;;;3.40;;
54919;SDS011;63804;53.120;8.764;2023-03-05T02:45:55;10.23;;;4.03;;
54919;SDS011;63804;53.120;8.764;2023-03-05T02:48:20;12.07;;;3.50;;
54919;SDS011;63804;53.120;8.764;2023-03-05T02:50:46;11.05;;;3.17;;
54919;SDS011;63804;53.120;8.764;2023-03-05T02:53:12;7.70;;;2.80;;
54919;SDS011;63804;53.120;8.764;2023-03-05T02:55:38;10.40;;;3.03;;
54919;SDS011;63804;53.120;8.764;2023-03-05T02:58:03;10.23;;;3.20;;
54919;SDS011;63804;53.120;8.764;2023-03-05T03:00:29;12.85;;;3.75;;
54919;SDS011;63804;53.120;8.764;2023-03-05T03:02:54;10.00;;;3.05;;
54919;SDS011;63804;53.120;8.764;2023-03-05T03:05:20;7.80;;;2.70;;
54919;SDS011;63804;53.120;8.764;2023-03-05T03:07:45;8.75;;;2.70;;
54919;SDS011;63804;53.120;8.764;2023-03-05T03:10:11;7.20;;;2.63;;
54919;SDS011;63804;53.120;8.764;2023-03-05T03:12:40;11.05;;;2.42;;
54919;SDS011;63804;53.120;8.764;2023-03-05T03:15:07;8.55;;;2.28;;
54919;SDS011;63804;53.120;8.764;2023-03-05T03:17:35;5.75;;;1.95;;
54919;SDS011;63804;53.120;8.764;2023-03-05T03:20:01;6.75;;;1.88;;
54919;SDS011;63804;53.120;8.764;2023-03-05T03:22:28;5.97;;;1.95;;
54919;SDS011;63804;53.120;8.764;2023-03-05T03:24:54;5.25;;;1.60;;
54919;SDS011;63804;53.120;8.764;2023-03-05T03:27:20;8.20;;;1.95;;
54919;SDS011;63804;53.120;8.764;2023-03-05T03:29:46;6.97;;;1.70;;
54919;SDS011;63804;53.120;8.764;2023-03-05T03:32:12;9.65;;;1.90;;
54919;SDS011;63804;53.120;8.764;2023-03-05T03:34:37;7.28;;;2.08;;
54919;SDS011;63804;53.120;8.764;2023-03-05T03:37:03;5.88;;;1.98;;
54919;SDS011;63804;53.120;8.764;2023-03-05T03:39:28;10.07;;;2.35;;
54919;SDS011;63804;53.120;8.764;2023-03-05T03:41:54;10.45;;;2.70;;
54919;SDS011;63804;53.120;8.764;2023-03-05T03:44:20;8.20;;;2.42;;
54919;SDS011;63804;53.120;8.764;2023-03-05T03:46:47;8.75;;;2.55;;
54919;SDS011;63804;53.120;8.764;2023-03-05T03:49:15;12.50;;;4.90;;
54919;SDS011;63804;53.120;8.764;2023-03-05T03:51:43;11.77;;;5.45;;
54919;SDS011;63804;53.120;8.764;2023-03-05T03:54:09;12.60;;;5.05;;
54919;SDS011;63804;53.120;8.764;2023-03-05T03:56:35;17.33;;;7.00;;
54919;SDS011;63804;53.120;8.764;2023-03-05T03:59:00;16.35;;;6.82;;
54919;SDS011;63804;53.120;8.764;2023-03-05T04:01:26;20.15;;;8.25;;
54919;SDS011;63804;53.120;8.764;2023-03-05T04:03:52;16.27;;;5.47;;
54919;SDS011;63804;53.120;8.764;2023-03-05T04:06:17;15.20;;;5.88;;
54919;SDS011;63804;53.120;8.764;2023-03-05T04:08:42;15.27;;;5.88;;
54919;SDS011;63804;53.120;8.764;2023-03-05T04:11:08;15.80;;;5.53;;
54919;SDS011;63804;53.120;8.764;2023-03-05T04:13:33;15.65;;;6.15;;
54919;SDS011;63804;53.120;8.764;2023-03-05T04:15:59;17.60;;;6.18;;
54919;SDS011;63804;53.120;8.764;2023-03-05T04:18:25;16.98;;;6.68;;
54919;SDS011;63804;53.120;8.764;2023-03-05T04:20:50;15.32;;;5.47;;
54919;SDS011;63804;53.120;8.764;2023-03-05T04:23:15;13.60;;;4.85;;
54919;SDS011;63804;53.120;8.764;2023-03-05T04:25:42;9.73;;;3.00;;
54919;SDS011;63804;53.120;8.764;2023-03-05T04:28:08;10.20;;;3.25;;
54919;SDS011;63804;53.120;8.764;2023-03-05T04:30:34;9.95;;;2.20;;
54919;SDS011;63804;53.120;8.764;2023-03-05T04:33:00;10.05;;;2.92;;
54919;SDS011;63804;53.120;8.764;2023-03-05T04:35:25;10.57;;;2.97;;
54919;SDS011;63804;53.120;8.764;2023-03-05T04:37:51;8.80;;;2.55;;
54919;SDS011;63804;53.120;8.764;2023-03-05T04:40:16;7.20;;;2.28;;
54919;SDS011;63804;53.120;8.764;2023-03-05T04:42:42;7.68;;;2.25;;
54919;SDS011;63804;53.120;8.764;2023-03-05T04:45:08;10.85;;;2.45;;
54919;SDS011;63804;53.120;8.764;2023-03-05T04:47:34;7.55;;;2.35;;
54919;SDS011;63804;53.120;8.764;2023-03-05T04:50:00;8.68;;;2.70;;
54919;SDS011;63804;53.120;8.764;2023-03-05T04:52:26;13.75;;;4.43;;
54919;SDS011;63804;53.120;8.764;2023-03-05T04:54:51;9.35;;;3.42;;
54919;SDS011;63804;53.120;8.764;2023-03-05T04:57:18;9.90;;;3.10;;
54919;SDS011;63804;53.120;8.764;2023-03-05T04:59:44;9.65;;;2.58;;
54919;SDS011;63804;53.120;8.764;2023-03-05T05:02:09;5.43;;;1.77;;
54919;SDS011;63804;53.120;8.764;2023-03-05T05:04:34;9.13;;;2.75;;
54919;SDS011;63804;53.120;8.764;2023-03-05T05:07:00;10.35;;;2.92;;
54919;SDS011;63804;53.120;8.764;2023-03-05T05:09:26;5.75;;;1.80;;
54919;SDS011;63804;53.120;8.764;2023-03-05T05:11:51;5.57;;;1.90;;
54919;SDS011;63804;53.120;8.764;2023-03-05T05:14:17;8.98;;;2.13;;
54919;SDS011;63804;53.120;8.764;2023-03-05T05:16:43;7.22;;;2.60;;
54919;SDS011;63804;53.120;8.764;2023-03-05T05:19:08;11.68;;;4.05;;
54919;SDS011;63804;53.120;8.764;2023-03-05T05:21:34;11.15;;;3.10;;
54919;SDS011;63804;53.120;8.764;2023-03-05T05:23:59;11.07;;;3.30;;
54919;SDS011;63804;53.120;8.764;2023-03-05T05:26:25;9.35;;;3.05;;
54919;SDS011;63804;53.120;8.764;2023-03-05T05:28:51;11.80;;;2.78;;
54919;SDS011;63804;53.120;8.764;2023-03-05T05:31:17;11.40;;;3.20;;
54919;SDS011;63804;53.120;8.764;2023-03-05T05:33:42;11.30;;;3.20;;
54919;SDS011;63804;53.120;8.764;2023-03-05T05:36:09;11.38;;;3.95;;
54919;SDS011;63804;53.120;8.764;2023-03-05T05:38:37;11.27;;;4.03;;
54919;SDS011;63804;53.120;8.764;2023-03-05T05:41:04;9.82;;;3.03;;
54919;SDS011;63804;53.120;8.764;2023-03-05T05:43:31;5.55;;;2.30;;
54919;SDS011;63804;53.120;8.764;2023-03-05T05:46:00;6.22;;;1.95;;
54919;SDS011;63804;53.120;8.764;2023-03-05T05:48:28;4.30;;;1.67;;
54919;SDS011;63804;53.120;8.764;2023-03-05T05:50:55;4.72;;;1.67;;
54919;SDS011;63804;53.120;8.764;2023-03-05T05:53:27;7.47;;;1.45;;
54919;SDS011;63804;53.120;8.764;2023-03-05T05:55:52;6.72;;;2.03;;
54919;SDS011;63804;53.120;8.764;2023-03-05T05:58:17;9.48;;;2.33;;
54919;SDS011;63804;53.120;8.764;2023-03-05T06:00:43;10.98;;;3.75;;
54919;SDS011;63804;53.120;8.764;2023-03-05T06:03:08;10.27;;;3.53;;
54919;SDS011;63804;53.120;8.764;2023-03-05T06:05:34;8.07;;;3.00;;
54919;SDS011;63804;53.120;8.764;2023-03-05T06:08:00;8.73;;;3.28;;
54919;SDS011;63804;53.120;8.764;2023-03-05T06:10:26;10.65;;;3.20;;
54919;SDS011;63804;53.120;8.764;2023-03-05T06:12:51;8.75;;;3.00;;
54919;SDS011;63804;53.120;8.764;2023-03-05T06:15:16;9.88;;;3.10;;
54919;SDS011;63804;53.120;8.764;2023-03-05T06:17:44;10.52;;;2.97;;
54919;SDS011;63804;53.120;8.764;2023-03-05T06:20:12;12.23;;;5.45;;
54919;SDS011;63804;53.120;8.764;2023-03-05T06:22:44;15.73;;;5.78;;
54919;SDS011;63804;53.120;8.764;2023-03-05T06:25:09;19.95;;;6.03;;
54919;SDS011;63804;53.120;8.764;2023-03-05T06:27:35;14.23;;;4.32;;
54919;SDS011;63804;53.120;8.764;2023-03-05T06:30:01;12.35;;;4.45;;
54919;SDS011;63804;53.120;8.764;2023-03-05T06:32:27;15.23;;;5.25;;
54919;SDS011;63804;53.120;8.764;2023-03-05T06:34:52;11.82;;;4.15;;
54919;SDS011;63804;53.120;8.764;2023-03-05T06:37:18;11.43;;;3.75;;
54919;SDS011;63804;53.120;8.764;2023-03-05T06:39:43;11.13;;;3.22;;
54919;SDS011;63804;53.120;8.764;2023-03-05T06:42:09;8.82;;;2.55;;
54919;SDS011;63804;53.120;8.764;2023-03-05T06:44:40;5.38;;;1.75;;
54919;SDS011;63804;53.120;8.764;2023-03-05T06:47:06;6.78;;;1.85;;
54919;SDS011;63804;53.120;8.764;2023-03-05T06:49:35;8.52;;;1.75;;
54919;SDS011;63804;53.120;8.764;2023-03-05T06:52:04;4.97;;;1.55;;
54919;SDS011;63804;53.120;8.764;2023-03-05T06:54:30;4.50;;;1.33;;
54919;SDS011;63804;53.120;8.764;2023-03-05T06:56:56;5.47;;;1.35;;
54919;SDS011;63804;53.120;8.764;2023-03-05T06:59:21;5.43;;;1.88;;
54919;SDS011;63804;53.120;8.764;2023-03-05T07:01:47;4.90;;;1.55;;
54919;SDS011;63804;53.120;8.764;2023-03-05T07:04:13;11.02;;;1.83;;
54919;SDS011;63804;53.120;8.764;2023-03-05T07:06:39;7.70;;;2.53;;
54919;SDS011;63804;53.120;8.764;2023-03-05T07:09:06;9.63;;;3.13;;
54919;SDS011;63804;53.120;8.764;2023-03-05T07:11:33;13.00;;;4.40;;
54919;SDS011;63804;53.120;8.764;2023-03-05T07:13:59;25.58;;;12.02;;
54919;SDS011;63804;53.120;8.764;2023-03-05T07:16:26;24.42;;;10.07;;
54919;SDS011;63804;53.120;8.764;2023-03-05T07:18:53;11.90;;;4.93;;
54919;SDS011;63804;53.120;8.764;2023-03-05T07:21:25;11.32;;;4.05;;
54919;SDS011;63804;53.120;8.764;2023-03-05T07:23:53;9.50;;;3.15;;
54919;SDS011;63804;53.120;8.764;2023-03-05T07:26:19;6.90;;;2.38;;
54919;SDS011;63804;53.120;8.764;2023-03-05T07:28:45;8.02;;;1.65;;
54919;SDS011;63804;53.120;8.764;2023-03-05T07:31:11;10.50;;;2.38;;
54919;SDS011;63804;53.120;8.764;2023-03-05T07:33:39;6.65;;;2.13;;
54919;SDS011;63804;53.120;8.764;2023-03-05T07:36:07;7.10;;;2.28;;
54919;SDS011;63804;53.120;8.764;2023-03-05T07:38:34;9.90;;;2.10;;
54919;SDS011;63804;53.120;8.764;2023-03-05T07:41:03;8.05;;;2.35;;
54919;SDS011;63804;53.120;8.764;2023-03-05T07:43:30;9.32;;;2.20;;
54919;SDS011;63804;53.120;8.764;2023-03-05T07:45:55;7.57;;;1.80;;
54919;SDS011;63804;53.120;8.764;2023-03-05T07:48:21;5.45;;;1.90;;
54919;SDS011;63804;53.120;8.764;2023-03-05T07:50:46;8.30;;;1.77;;
54919;SDS011;63804;53.120;8.764;2023-03-05T07:53:13;8.23;;;1.77;;
54919;SDS011;63804;53.120;8.764;2023-03-05T07:55:42;8.85;;;1.40;;
54919;SDS011;63804;53.120;8.764;2023-03-05T07:58:09;4.55;;;1.40;;
54919;SDS011;63804;53.120;8.764;2023-03-05T08:00:34;5.85;;;1.70;;
54919;SDS011;63804;53.120;8.764;2023-03-05T08:03:00;6.18;;;1.52;;
54919;SDS011;63804;53.120;8.764;2023-03-05T08:05:25;4.95;;;1.60;;
54919;SDS011;63804;53.120;8.764;2023-03-05T08:07:51;6.43;;;1.92;;
54919;SDS011;63804;53.120;8.764;2023-03-05T08:10:16;7.60;;;2.15;;
54919;SDS011;63804;53.120;8.764;2023-03-05T08:12:42;9.43;;;2.90;;
54919;SDS011;63804;53.120;8.764;2023-03-05T08:15:07;11.65;;;3.58;;
54919;SDS011;63804;53.120;8.764;2023-03-05T08:17:33;9.00;;;2.42;;
54919;SDS011;63804;53.120;8.764;2023-03-05T08:19:58;11.60;;;2.80;;
54919;SDS011;63804;53.120;8.764;2023-03-05T08:22:28;8.20;;;3.00;;
54919;SDS011;63804;53.120;8.764;2023-03-05T08:24:54;11.15;;;3.30;;
54919;SDS011;63804;53.120;8.764;2023-03-05T08:27:19;7.82;;;2.55;;
54919;SDS011;63804;53.120;8.764;2023-03-05T08:29:45;9.20;;;3.05;;
54919;SDS011;63804;53.120;8.764;2023-03-05T08:32:11;10.85;;;3.47;;
54919;SDS011;63804;53.120;8.764;2023-03-05T08:34:36;9.90;;;3.33;;
54919;SDS011;63804;53.120;8.764;2023-03-05T08:37:02;10.20;;;3.58;;
54919;SDS011;63804;53.120;8.764;2023-03-05T08:39:27;11.07;;;3.10;;
54919;SDS011;63804;53.120;8.764;2023-03-05T08:41:54;11.70;;;3.20;;
54919;SDS011;63804;53.120;8.764;2023-03-05T08:44:19;8.73;;;3.17;;
54919;SDS011;63804;53.120;8.764;2023-03-05T08:46:45;9.75;;;3.00;;
54919;SDS011;63804;53.120;8.764;2023-03-05T08:49:10;15.95;;;3.38;;
54919;SDS011;63804;53.120;8.764;2023-03-05T08:51:36;14.38;;;3.20;;
54919;SDS011;63804;53.120;8.764;2023-03-05T08:54:01;7.72;;;2.10;;
54919;SDS011;63804;53.120;8.764;2023-03-05T08:56:31;14.48;;;3.53;;
54919;SDS011;63804;53.120;8.764;2023-03-05T08:58:57;11.60;;;3.10;;
54919;SDS011;63804;53.120;8.764;2023-03-05T09:01:22;13.82;;;3.03;;
54919;SDS011;63804;53.120;8.764;2023-03-05T09:03:48;7.20;;;2.08;;
54919;SDS011;63804;53.120;8.764;2023-03-05T09:06:14;10.55;;;2.60;;
54919;SDS011;63804;53.120;8.764;2023-03-05T09:08:39;9.88;;;2.35;;
54919;SDS011;63804;53.120;8.764;2023-03-05T09:11:06;5.70;;;2.30;;
54919;SDS011;63804;53.120;8.764;2023-03-05T09:13:32;7.32;;;1.50;;
54919;SDS011;63804;53.120;8.764;2023-03-05T09:16:00;6.68;;;1.30;;
54919;SDS011;63804;53.120;8.764;2023-03-05T09:18:30;5.55;;;1.40;;
54919;SDS011;63804;53.120;8.764;2023-03-05T09:21:08;7.53;;;1.40;;
54919;SDS011;63804;53.120;8.764;2023-03-05T09:23:39;6.05;;;2.10;;
54919;SDS011;63804;53.120;8.764;2023-03-05T09:26:05;6.22;;;1.65;;
54919;SDS011;63804;53.120;8.764;2023-03-05T09:28:32;10.20;;;2.80;;
54919;SDS011;63804;53.120;8.764;2023-03-05T09:31:00;12.15;;;4.38;;
54919;SDS011;63804;53.120;8.764;2023-03-05T09:33:28;12.48;;;4.63;;
54919;SDS011;63804;53.120;8.764;2023-03-05T09:35:54;9.95;;;4.45;;
54919;SDS011;63804;53.120;8.764;2023-03-05T09:38:19;11.63;;;3.72;;
54919;SDS011;63804;53.120;8.764;2023-03-05T09:40:57;8.88;;;3.30;;
54919;SDS011;63804;53.120;8.764;2023-03-05T09:43:46;7.28;;;2.47;;
54919;SDS011;63804;53.120;8.764;2023-03-05T09:48:51;7.78;;;2.30;;
54919;SDS011;63804;53.120;8.764;2023-03-05T09:51:27;6.72;;;2.65;;
54919;SDS011;63804;53.120;8.764;2023-03-05T09:56:28;6.47;;;1.92;;
54919;SDS011;63804;53.120;8.764;2023-03-05T09:59:13;12.18;;;2.80;;
54919;SDS011;63804;53.120;8.764;2023-03-05T10:01:45;9.43;;;1.83;;
54919;SDS011;63804;53.120;8.764;2023-03-05T10:06:59;5.10;;;1.67;;
54919;SDS011;63804;53.120;8.764;2023-03-05T10:12:11;7.93;;;2.28;;
54919;SDS011;63804;53.120;8.764;2023-03-05T10:14:48;5.57;;;2.20;;
54919;SDS011;63804;53.120;8.764;2023-03-05T10:31:05;6.28;;;1.85;;
54919;SDS011;63804;53.120;8.764;2023-03-05T10:39:37;6.53;;;1.25;;
54919;SDS011;63804;53.120;8.764;2023-03-05T10:42:10;3.63;;;1.25;;
54919;SDS011;63804;53.120;8.764;2023-03-05T10:45:17;4.15;;;1.23;;
54919;SDS011;63804;53.120;8.764;2023-03-05T10:50:20;3.92;;;0.90;;
54919;SDS011;63804;53.120;8.764;2023-03-05T10:53:31;4.72;;;0.95;;
54919;SDS011;63804;53.120;8.764;2023-03-05T10:55:38;4.70;;;1.00;;
54919;SDS011;63804;53.120;8.764;2023-03-05T10:58:16;7.22;;;1.30;;
54919;SDS011;63804;53.120;8.764;2023-03-05T11:03:22;3.60;;;1.30;;
54919;SDS011;63804;53.120;8.764;2023-03-05T11:05:50;6.20;;;1.52;;
54919;SDS011;63804;53.120;8.764;2023-03-05T11:13:33;3.78;;;1.02;;
54919;SDS011;63804;53.120;8.764;2023-03-05T11:16:03;4.60;;;1.10;;
54919;SDS011;63804;53.120;8.764;2023-03-05T11:18:31;3.50;;;1.00;;
54919;SDS011;63804;53.120;8.764;2023-03-05T11:24:03;3.95;;;1.00;;
54919;SDS011;63804;53.120;8.764;2023-03-05T11:26:34;2.40;;;1.02;;
54919;SDS011;63804;53.120;8.764;2023-03-05T11:29:01;5.22;;;1.25;;
54919;SDS011;63804;53.120;8.764;2023-03-05T11:31:30;4.85;;;1.00;;
54919;SDS011;63804;53.120;8.764;2023-03-05T11:41:55;3.85;;;0.73;;
54919;SDS011;63804;53.120;8.764;2023-03-05T11:44:23;1.48;;;0.75;;
54919;SDS011;63804;53.120;8.764;2023-03-05T11:49:45;4.47;;;1.33;;
54919;SDS011;63804;53.120;8.764;2023-03-05T11:52:17;2.25;;;0.70;;
54919;SDS011;63804;53.120;8.764;2023-03-05T11:55:00;3.13;;;0.70;;
54919;SDS011;63804;53.120;8.764;2023-03-05T11:57:32;2.20;;;0.60;;
54919;SDS011;63804;53.120;8.764;2023-03-05T12:00:06;2.78;;;1.10;;
54919;SDS011;63804;53.120;8.764;2023-03-05T12:02:37;8.43;;;3.03;;
54919;SDS011;63804;53.120;8.764;2023-03-05T12:05:04;9.65;;;3.92;;
54919;SDS011;63804;53.120;8.764;2023-03-05T12:07:35;10.48;;;4.75;;
54919;SDS011;63804;53.120;8.764;2023-03-05T12:12:36;11.90;;;3.50;;
54919;SDS011;63804;53.120;8.764;2023-03-05T12:23:53;4.53;;;2.20;;
54919;SDS011;63804;53.120;8.764;2023-03-05T12:29:29;6.68;;;1.92;;
54919;SDS011;63804;53.120;8.764;2023-03-05T12:47:43;6.32;;;1.40;;
54919;SDS011;63804;53.120;8.764;2023-03-05T12:55:34;3.90;;;1.17;;
54919;SDS011;63804;53.120;8.764;2023-03-05T13:03:28;5.28;;;1.67;;
54919;SDS011;63804;53.120;8.764;2023-03-05T13:05:58;6.18;;;2.10;;
54919;SDS011;63804;53.120;8.764;2023-03-05T13:08:31;5.75;;;1.73;;
54919;SDS011;63804;53.120;8.764;2023-03-05T13:11:11;6.63;;;1.90;;
54919;SDS011;63804;53.120;8.764;2023-03-05T13:13:43;6.10;;;1.85;;
54919;SDS011;63804;53.120;8.764;2023-03-05T13:16:17;4.95;;;1.17;;
54919;SDS011;63804;53.120;8.764;2023-03-05T13:18:46;6.22;;;1.08;;
54919;SDS011;63804;53.120;8.764;2023-03-05T13:21:14;3.30;;;0.90;;
54919;SDS011;63804;53.120;8.764;2023-03-05T13:23:50;2.80;;;0.73;;
54919;SDS011;63804;53.120;8.764;2023-03-05T13:26:31;5.45;;;0.73;;
54919;SDS011;63804;53.120;8.764;2023-03-05T13:31:42;5.72;;;1.00;;
54919;SDS011;63804;53.120;8.764;2023-03-05T13:34:22;2.88;;;0.98;;
54919;SDS011;63804;53.120;8.764;2023-03-05T13:39:33;5.75;;;1.70;;
54919;SDS011;63804;53.120;8.764;2023-03-05T13:42:13;4.60;;;1.42;;
54919;SDS011;63804;53.120;8.764;2023-03-05T13:44:41;7.72;;;1.58;;
54919;SDS011;63804;53.120;8.764;2023-03-05T13:47:14;5.53;;;1.38;;
54919;SDS011;63804;53.120;8.764;2023-03-05T13:49:42;5.68;;;1.45;;
54919;SDS011;63804;53.120;8.764;2023-03-05T13:52:08;1.83;;;0.98;;
54919;SDS011;63804;53.120;8.764;2023-03-05T13:54:34;4.05;;;1.10;;
54919;SDS011;63804;53.120;8.764;2023-03-05T13:57:04;3.67;;;1.00;;
54919;SDS011;63804;53.120;8.764;2023-03-05T13:59:32;3.90;;;1.20;;
54919;SDS011;63804;53.120;8.764;2023-03-05T14:02:18;2.80;;;1.20;;
54919;SDS011;63804;53.120;8.764;2023-03-05T14:04:45;8.15;;;2.63;;
54919;SDS011;63804;53.120;8.764;2023-03-05T14:09:52;10.50;;;3.08;;
54919;SDS011;63804;53.120;8.764;2023-03-05T14:12:23;9.00;;;3.35;;
54919;SDS011;63804;53.120;8.764;2023-03-05T14:14:58;9.50;;;3.38;;
54919;SDS011;63804;53.120;8.764;2023-03-05T14:22:36;8.15;;;2.13;;
54919;SDS011;63804;53.120;8.764;2023-03-05T14:25:03;8.35;;;2.10;;
54919;SDS011;63804;53.120;8.764;2023-03-05T14:27:34;4.95;;;1.55;;
54919;SDS011;63804;53.120;8.764;2023-03-05T14:30:02;4.78;;;1.27;;
54919;SDS011;63804;53.120;8.764;2023-03-05T14:32:30;7.43;;;1.40;;
54919;SDS011;63804;53.120;8.764;2023-03-05T14:34:59;6.47;;;1.50;;
54919;SDS011;63804;53.120;8.764;2023-03-05T14:37:35;7.88;;;1.67;;
54919;SDS011;63804;53.120;8.764;2023-03-05T14:40:06;6.32;;;1.90;;
54919;SDS011;63804;53.120;8.764;2023-03-05T14:42:52;4.35;;;1.58;;
54919;SDS011;63804;53.120;8.764;2023-03-05T14:45:23;5.95;;;1.73;;
54919;SDS011;63804;53.120;8.764;2023-03-05T14:47:54;5.82;;;1.40;;
54919;SDS011;63804;53.120;8.764;2023-03-05T14:50:25;5.60;;;1.40;;
54919;SDS011;63804;53.120;8.764;2023-03-05T14:53:00;2.92;;;0.90;;
54919;SDS011;63804;53.120;8.764;2023-03-05T14:55:28;2.63;;;0.88;;
54919;SDS011;63804;53.120;8.764;2023-03-05T14:58:12;3.38;;;0.82;;
54919;SDS011;63804;53.120;8.764;2023-03-05T15:00:40;3.30;;;0.93;;
54919;SDS011;63804;53.120;8.764;2023-03-05T15:03:09;3.58;;;1.00;;
54919;SDS011;63804;53.120;8.764;2023-03-05T15:05:38;2.97;;;0.90;;
54919;SDS011;63804;53.120;8.764;2023-03-05T15:08:05;5.22;;;1.30;;
54919;SDS011;63804;53.120;8.764;2023-03-05T15:10:37;4.50;;;1.48;;
54919;SDS011;63804;53.120;8.764;2023-03-05T15:13:03;4.75;;;1.75;;
54919;SDS011;63804;53.120;8.764;2023-03-05T15:15:28;8.75;;;2.40;;
54919;SDS011;63804;53.120;8.764;2023-03-05T15:17:54;8.38;;;2.65;;
54919;SDS011;63804;53.120;8.764;2023-03-05T15:20:24;10.05;;;3.50;;
54919;SDS011;63804;53.120;8.764;2023-03-05T15:22:58;10.40;;;4.07;;
54919;SDS011;63804;53.120;8.764;2023-03-05T15:25:24;9.57;;;4.25;;
54919;SDS011;63804;53.120;8.764;2023-03-05T15:27:50;10.93;;;4.30;;
54919;SDS011;63804;53.120;8.764;2023-03-05T15:32:56;11.23;;;4.38;;
54919;SDS011;63804;53.120;8.764;2023-03-05T15:35:23;14.07;;;5.40;;
54919;SDS011;63804;53.120;8.764;2023-03-05T15:37:49;10.50;;;4.10;;
54919;SDS011;63804;53.120;8.764;2023-03-05T15:40:15;7.18;;;2.58;;
54919;SDS011;63804;53.120;8.764;2023-03-05T15:42:42;4.90;;;1.80;;
54919;SDS011;63804;53.120;8.764;2023-03-05T15:45:07;6.93;;;2.03;;
54919;SDS011;63804;53.120;8.764;2023-03-05T15:47:39;6.80;;;2.03;;
54919;SDS011;63804;53.120;8.764;2023-03-05T15:50:05;8.60;;;2.45;;
54919;SDS011;63804;53.120;8.764;2023-03-05T15:52:31;9.63;;;2.97;;
54919;SDS011;63804;53.120;8.764;2023-03-05T15:54:58;9.98;;;3.75;;
54919;SDS011;63804;53.120;8.764;2023-03-05T16:00:25;12.00;;;3.30;;
54919;SDS011;63804;53.120;8.764;2023-03-05T16:02:54;4.80;;;1.77;;
54919;SDS011;63804;53.120;8.764;2023-03-05T16:05:19;6.32;;;1.05;;
54919;SDS011;63804;53.120;8.764;2023-03-05T16:07:45;4.78;;;1.30;;
54919;SDS011;63804;53.120;8.764;2023-03-05T16:10:14;6.78;;;1.50;;
54919;SDS011;63804;53.120;8.764;2023-03-05T16:12:42;6.78;;;2.10;;
54919;SDS011;63804;53.120;8.764;2023-03-05T16:15:16;7.95;;;3.30;;
54919;SDS011;63804;53.120;8.764;2023-03-05T16:17:43;8.60;;;3.00;;
54919;SDS011;63804;53.120;8.764;2023-03-05T16:20:11;8.13;;;3.35;;
54919;SDS011;63804;53.120;8.764;2023-03-05T16:22:37;7.32;;;2.80;;
54919;SDS011;63804;53.120;8.764;2023-03-05T16:25:03;7.20;;;2.30;;
54919;SDS011;63804;53.120;8.764;2023-03-05T16:27:29;9.77;;;2.88;;
54919;SDS011;63804;53.120;8.764;2023-03-05T16:29:54;14.85;;;5.38;;
54919;SDS011;63804;53.120;8.764;2023-03-05T16:32:20;10.70;;;3.60;;
54919;SDS011;63804;53.120;8.764;2023-03-05T16:34:46;8.68;;;3.45;;
54919;SDS011;63804;53.120;8.764;2023-03-05T16:37:19;10.63;;;2.83;;
54919;SDS011;63804;53.120;8.764;2023-03-05T16:39:47;6.75;;;2.63;;
54919;SDS011;63804;53.120;8.764;2023-03-05T16:42:13;10.23;;;3.08;;
54919;SDS011;63804;53.120;8.764;2023-03-05T16:44:39;12.55;;;4.07;;
54919;SDS011;63804;53.120;8.764;2023-03-05T16:47:05;10.45;;;4.05;;